Etusivu
METAR-TAF:

METAR-TAF

Lentoasemat :

Haugesund, Norja

Leveyspiiri: 59-21N, Pituuspiiri: 005-13E, korkeus merenpinnasta: 2 m

Tämänhetkinen sää

Tämä raportti tehtiin 19 minuuttia sitten, kello 13.20 UTC
Tuuli 8 kn pohjoisesta
Lämpötila 14°C
Kosteus 72%
Ilmanpaine 1029 hPa
Näkyvyys 10 km tai enemmän
ei pilviä alle 1500 m:ssä eikä cumulonimbus-pilviä

METAR: ENHD 241320Z 35008KT CAVOK 14/09 Q1029

Aika: 15:39 (13:39 UTC)

Sääennuste

Tämä raportti tehtiin 2 tuntia ja 39 minuuttia sitten, kello 11.00 UTC
Ennuste voimassa 24. päivästä klo 12 UTC - 24. päivään klo 21 UTC
Tuuli 8 kn pohjoisen/luoteesta
Näkyvyys 10 km tai enemmän
ei pilviä alle 1500 m:ssä eikä cumulonimbus-pilviä

TAF: ENHD 241100Z 2412/2421 34008KT CAVOK

Säähavainnot ja -ennusteet yli 4000 lentoasemalta (METAR- ja TAF-raportit).

Käytössä olevat sääasemat on merkitty karttaan keltaisilla ja punaisilla pisteillä.

Aseta hiiri pisteen päälle nähdäksesi sääaseman nimen.

Klikkaa sitten nähdäksesi säähavainnot ja -ennusteet.

Kartan vaihtaminen: klikkaa mustalla rastilla varustettuja vihreitä pisteitä, niin voit zoomata sisään; viivalla varustettua vihreää pistettä, niin voit zoomata ulos tai vihreitä nuolia, niin pääset viereisille kartoille.


METAR-TAF: